createdAt,value
2018-12-21T00:00:33.376Z,8.00
2018-12-21T00:02:41.973Z,8.00
2018-12-21T00:04:50.703Z,8.00
2018-12-21T00:06:59.433Z,8.00
2018-12-21T00:09:06.391Z,8.10
2018-12-21T00:11:10.565Z,8.10
2018-12-21T00:13:19.731Z,8.00
2018-12-21T00:15:23.971Z,8.00
2018-12-21T00:17:34.477Z,8.00
2018-12-21T00:19:33.313Z,7.90
2018-12-21T00:21:42.207Z,8.00
2018-12-21T00:23:46.395Z,8.00
2018-12-21T00:25:54.925Z,8.10
2018-12-21T00:28:03.899Z,8.10
2018-12-21T00:30:14.369Z,8.10
2018-12-21T00:32:24.352Z,8.10
2018-12-21T00:34:38.981Z,8.10
2018-12-21T00:36:48.037Z,8.10
2018-12-21T00:39:02.603Z,8.10
2018-12-21T00:41:14.028Z,8.10
2018-12-21T00:43:23.336Z,8.10
2018-12-21T00:45:28.803Z,8.10
2018-12-21T00:47:37.466Z,8.10
2018-12-21T00:49:41.895Z,8.00
2018-12-21T00:51:45.432Z,8.10
2018-12-21T00:53:49.299Z,8.10
2018-12-21T00:55:55.349Z,8.10
2018-12-21T00:57:59.253Z,8.00
2018-12-21T01:00:03.548Z,8.10
2018-12-21T01:02:11.904Z,8.20
2018-12-21T01:04:20.628Z,8.20
2018-12-21T01:06:29.369Z,8.20
2018-12-21T01:08:38.273Z,8.10
2018-12-21T01:10:42.104Z,8.20
2018-12-21T01:12:50.541Z,8.10
2018-12-21T01:14:54.518Z,8.20
2018-12-21T01:17:03.160Z,8.20
2018-12-21T01:19:07.061Z,8.20
2018-12-21T01:21:11.272Z,8.10
2018-12-21T01:23:15.082Z,8.10
2018-12-21T01:25:18.985Z,8.10
2018-12-21T01:29:50.427Z,8.20
2018-12-21T01:31:54.229Z,8.20
2018-12-21T01:33:58.109Z,8.20
2018-12-21T01:36:06.909Z,8.20
2018-12-21T01:38:15.787Z,8.10
2018-12-21T01:40:24.682Z,8.10
2018-12-21T01:42:33.652Z,8.10
2018-12-21T01:44:37.625Z,8.10
2018-12-21T01:46:46.292Z,8.10
2018-12-21T01:48:50.271Z,8.10
2018-12-21T01:50:58.817Z,8.10
2018-12-21T01:53:07.916Z,8.10
2018-12-21T01:55:11.828Z,8.10
2018-12-21T01:57:20.460Z,8.20
2018-12-21T01:59:29.408Z,8.20
2018-12-21T02:01:38.352Z,8.10
2018-12-21T02:03:42.344Z,8.10
2018-12-21T02:05:51.228Z,8.10
2018-12-21T02:07:59.751Z,8.10
2018-12-21T02:10:08.419Z,8.20
2018-12-21T02:12:17.324Z,8.10
2018-12-21T02:14:21.336Z,8.00
2018-12-21T02:16:29.006Z,8.10
2018-12-21T02:18:38.193Z,8.10
2018-12-21T02:20:49.000Z,8.10
2018-12-21T02:22:52.992Z,8.20
2018-12-21T02:25:01.745Z,8.20
2018-12-21T02:27:05.625Z,8.10
2018-12-21T02:29:11.419Z,8.10
2018-12-21T02:31:15.208Z,8.10
2018-12-21T02:33:23.921Z,8.10
2018-12-21T02:35:27.761Z,8.10
2018-12-21T02:37:36.364Z,8.10
2018-12-21T02:39:44.924Z,8.10
2018-12-21T02:41:48.812Z,8.10
2018-12-21T02:43:57.439Z,8.10
2018-12-21T02:46:13.900Z,8.20
2018-12-21T02:48:18.667Z,8.20
2018-12-21T02:50:22.660Z,8.20
2018-12-21T02:52:31.088Z,8.10
2018-12-21T02:54:35.194Z,8.10
2018-12-21T02:56:43.732Z,8.20
2018-12-21T02:58:52.716Z,8.10
2018-12-21T03:00:56.804Z,8.20
2018-12-21T03:03:00.772Z,8.20
2018-12-21T03:05:06.651Z,8.20
2018-12-21T03:07:10.720Z,8.20
2018-12-21T03:09:14.729Z,8.10
2018-12-21T03:11:18.396Z,8.20
2018-12-21T03:13:22.379Z,8.10
2018-12-21T03:15:26.159Z,8.10
2018-12-21T03:17:34.808Z,8.10
2018-12-21T03:19:43.630Z,8.10
2018-12-21T03:21:52.351Z,8.10
2018-12-21T03:23:58.511Z,8.10
2018-12-21T03:26:02.408Z,8.10
2018-12-21T03:28:11.250Z,8.10
2018-12-21T03:30:15.440Z,8.10
2018-12-21T03:32:19.174Z,8.10
2018-12-21T03:34:27.693Z,8.10
2018-12-21T03:36:31.838Z,8.20
2018-12-21T03:38:40.734Z,8.10
2018-12-21T03:40:44.453Z,8.10
2018-12-21T03:42:48.990Z,8.10
2018-12-21T03:44:53.720Z,8.10
2018-12-21T03:47:00.049Z,8.10
2018-12-21T03:49:08.680Z,8.10
2018-12-21T03:51:17.826Z,8.20
2018-12-21T03:53:26.402Z,8.20
2018-12-21T03:55:35.683Z,8.10
2018-12-21T03:57:44.464Z,8.10
2018-12-21T03:59:53.139Z,8.20
2018-12-21T04:02:01.927Z,8.20
2018-12-21T04:04:05.905Z,8.10
2018-12-21T04:06:09.890Z,8.10
2018-12-21T04:08:13.645Z,8.10
2018-12-21T04:10:17.524Z,8.10
2018-12-21T04:12:26.457Z,8.20
2018-12-21T04:14:30.402Z,8.20
2018-12-21T04:16:34.209Z,8.10
2018-12-21T04:18:42.985Z,8.10
2018-12-21T04:20:52.618Z,8.10
2018-12-21T04:23:01.310Z,8.10
2018-12-21T04:25:09.941Z,8.10
2018-12-21T04:27:18.722Z,8.10
2018-12-21T04:29:22.840Z,8.20
2018-12-21T04:31:31.593Z,8.10
2018-12-21T04:33:40.344Z,8.10
2018-12-21T04:35:46.455Z,8.20
2018-12-21T04:37:55.003Z,8.00
2018-12-21T04:40:03.776Z,8.10
2018-12-21T04:42:07.659Z,8.10
2018-12-21T04:44:11.549Z,8.10
2018-12-21T04:46:20.070Z,8.10
2018-12-21T04:48:24.068Z,8.10
2018-12-21T04:50:32.631Z,8.10
2018-12-21T04:52:43.432Z,8.20
2018-12-21T04:54:52.176Z,8.20
2018-12-21T04:56:58.171Z,8.20
2018-12-21T04:59:06.584Z,8.20
2018-12-21T05:01:10.579Z,8.10
2018-12-21T05:03:19.338Z,8.20
2018-12-21T05:05:25.408Z,8.20
2018-12-21T05:07:29.474Z,8.20
2018-12-21T05:09:33.372Z,8.20
2018-12-21T05:11:42.094Z,8.20
2018-12-21T05:13:46.004Z,8.20
2018-12-21T05:15:54.745Z,8.30
2018-12-21T05:17:58.996Z,8.20
2018-12-21T05:20:03.264Z,8.20
2018-12-21T05:22:11.714Z,8.20
2018-12-21T05:24:20.744Z,8.20
2018-12-21T05:26:24.700Z,8.10
2018-12-21T05:28:28.599Z,8.20
2018-12-21T05:30:32.466Z,8.20
2018-12-21T05:32:40.941Z,8.20
2018-12-21T05:34:44.937Z,8.20
2018-12-21T05:36:48.831Z,8.20
2018-12-21T05:38:54.592Z,8.10
2018-12-21T05:41:03.273Z,8.20
2018-12-21T05:43:12.117Z,8.20
2018-12-21T05:45:16.330Z,8.20
2018-12-21T05:47:22.261Z,8.20
2018-12-21T05:49:31.001Z,8.20
2018-12-21T05:51:39.704Z,8.20
2018-12-21T05:53:48.587Z,8.20
2018-12-21T05:55:57.481Z,8.20
2018-12-21T05:58:03.425Z,8.20
2018-12-21T06:00:08.379Z,8.20
2018-12-21T06:02:11.862Z,8.20
2018-12-21T06:04:16.418Z,8.20
2018-12-21T06:06:19.796Z,8.10
2018-12-21T06:08:28.304Z,8.20
2018-12-21T06:10:37.320Z,8.20
2018-12-21T06:12:46.005Z,8.10
2018-12-21T06:14:49.988Z,8.10
2018-12-21T06:16:53.931Z,8.10
2018-12-21T06:18:57.968Z,8.10
2018-12-21T06:21:01.921Z,8.10
2018-12-21T06:23:10.852Z,8.10
2018-12-21T06:25:14.983Z,8.10
2018-12-21T06:27:21.166Z,8.10
2018-12-21T06:29:29.504Z,8.00
2018-12-21T06:31:38.463Z,8.00
2018-12-21T06:33:44.552Z,8.10
2018-12-21T06:35:53.103Z,8.10
2018-12-21T06:38:02.212Z,8.10
2018-12-21T06:40:08.553Z,8.10
2018-12-21T06:42:14.464Z,8.10
2018-12-21T06:44:18.488Z,8.00
2018-12-21T06:46:26.994Z,8.00
2018-12-21T06:48:36.061Z,8.00
2018-12-21T06:50:40.160Z,8.00
2018-12-21T06:52:44.140Z,8.00
2018-12-21T06:54:52.964Z,8.00
2018-12-21T06:57:01.707Z,8.00
2018-12-21T06:59:05.716Z,8.10
2018-12-21T07:01:09.520Z,8.10
2018-12-21T07:03:17.057Z,8.10
2018-12-21T07:05:19.413Z,8.10
2018-12-21T07:07:28.241Z,8.10
2018-12-21T07:09:36.998Z,8.10
2018-12-21T07:11:45.743Z,8.00
2018-12-21T07:13:49.929Z,8.00
2018-12-21T07:15:53.743Z,7.90
2018-12-21T07:17:57.516Z,7.90
2018-12-21T07:20:06.267Z,7.90
2018-12-21T07:22:15.196Z,7.90
2018-12-21T07:24:18.597Z,7.90
2018-12-21T07:26:24.482Z,7.90
2018-12-21T07:28:28.436Z,7.90
2018-12-21T07:30:32.542Z,7.90
2018-12-21T07:32:36.451Z,7.80
2018-12-21T07:34:40.405Z,7.80
2018-12-21T07:36:44.216Z,7.80
2018-12-21T07:38:52.816Z,7.80
2018-12-21T07:41:01.564Z,7.90
2018-12-21T07:43:10.284Z,7.80
2018-12-21T07:45:19.244Z,7.80
2018-12-21T07:47:25.188Z,7.80
2018-12-21T07:49:29.093Z,7.80
2018-12-21T07:51:33.059Z,7.70
2018-12-21T07:53:41.593Z,7.80
2018-12-21T07:55:50.454Z,7.70
2018-12-21T07:57:59.381Z,7.80
2018-12-21T08:00:08.440Z,7.90
2018-12-21T08:02:16.868Z,7.80
2018-12-21T08:04:25.679Z,7.90
2018-12-21T08:06:34.510Z,7.80
2018-12-21T08:08:38.643Z,7.90
2018-12-21T08:10:47.273Z,7.80
2018-12-21T08:12:53.423Z,7.80
2018-12-21T08:14:57.341Z,7.80
2018-12-21T08:17:06.111Z,7.80
2018-12-21T08:19:10.292Z,7.70
2018-12-21T08:21:18.700Z,7.70
2018-12-21T08:23:28.455Z,7.70
2018-12-21T08:25:37.588Z,7.80
2018-12-21T08:27:46.071Z,7.80
2018-12-21T08:29:50.247Z,7.80
2018-12-21T08:31:54.013Z,7.80
2018-12-21T08:33:57.824Z,7.80
2018-12-21T08:36:06.370Z,7.70
2018-12-21T08:38:10.558Z,7.80
2018-12-21T08:40:19.228Z,7.80
2018-12-21T08:42:27.918Z,7.70
2018-12-21T08:44:36.717Z,7.80
2018-12-21T08:46:45.635Z,7.80
2018-12-21T08:48:54.352Z,7.90
2018-12-21T08:51:03.335Z,7.90
2018-12-21T08:53:12.100Z,7.90
2018-12-21T08:55:20.863Z,7.80
2018-12-21T08:57:29.704Z,7.90
2018-12-21T09:01:44.447Z,7.90
2018-12-21T09:03:53.081Z,7.90
2018-12-21T09:05:57.031Z,7.90
2018-12-21T09:08:06.877Z,7.90
2018-12-21T09:10:15.837Z,7.90
2018-12-21T09:12:22.016Z,8.00
2018-12-21T09:14:26.082Z,8.00
2018-12-21T09:16:30.052Z,8.00
2018-12-21T09:18:34.056Z,8.00
2018-12-21T09:20:38.064Z,8.00
2018-12-21T09:22:46.840Z,8.00
2018-12-21T09:24:55.915Z,8.10
2018-12-21T09:27:05.004Z,8.10
2018-12-21T09:29:09.159Z,8.10
2018-12-21T09:31:17.828Z,8.10
2018-12-21T09:33:26.575Z,8.10
2018-12-21T09:35:30.591Z,8.10
2018-12-21T09:37:39.224Z,8.10
2018-12-21T09:39:47.954Z,8.10
2018-12-21T09:41:52.113Z,8.10
2018-12-21T09:43:58.079Z,8.10
2018-12-21T09:46:01.980Z,8.20
2018-12-21T09:48:10.605Z,8.20
2018-12-21T09:50:19.402Z,8.10
2018-12-21T09:52:23.497Z,8.20
2018-12-21T09:54:27.176Z,8.20
2018-12-21T09:56:35.915Z,8.30
2018-12-21T09:58:44.768Z,8.30
2018-12-21T10:02:58.334Z,8.20
2018-12-21T10:05:02.562Z,8.30
2018-12-21T10:07:11.272Z,8.20
2018-12-21T10:09:17.448Z,8.30
2018-12-21T10:11:26.214Z,8.20
2018-12-21T10:13:30.284Z,8.20
2018-12-21T10:15:39.085Z,8.20
2018-12-21T10:17:47.703Z,8.20
2018-12-21T10:19:51.740Z,8.20
2018-12-21T10:21:55.518Z,8.20
2018-12-21T10:24:04.361Z,8.20
2018-12-21T10:26:08.448Z,8.20
2018-12-21T10:28:14.344Z,8.10
2018-12-21T10:30:18.156Z,8.10
2018-12-21T10:32:21.978Z,8.20
2018-12-21T10:34:27.944Z,8.20
2018-12-21T10:36:36.841Z,8.20
2018-12-21T10:38:40.728Z,8.30
2018-12-21T10:40:44.608Z,8.30
2018-12-21T10:42:48.408Z,8.40
2018-12-21T10:44:52.284Z,8.40
2018-12-21T10:47:01.038Z,8.40
2018-12-21T10:49:05.052Z,8.30
2018-12-21T10:51:13.682Z,8.40
2018-12-21T10:53:22.520Z,8.40
2018-12-21T10:55:26.784Z,8.40
2018-12-21T10:57:30.716Z,8.40
2018-12-21T10:59:34.482Z,8.50
2018-12-21T11:01:40.460Z,8.40
2018-12-21T11:03:44.140Z,8.50
2018-12-21T11:05:48.164Z,8.50
2018-12-21T11:07:51.965Z,8.50
2018-12-21T11:09:55.635Z,8.50
2018-12-21T11:12:04.603Z,8.50
2018-12-21T11:14:13.520Z,8.50
2018-12-21T11:16:22.409Z,8.50
2018-12-21T11:18:26.460Z,8.40
2018-12-21T11:20:35.120Z,8.40
2018-12-21T11:22:43.944Z,8.50
2018-12-21T11:24:47.945Z,8.50
2018-12-21T11:26:56.572Z,8.50
2018-12-21T11:29:00.457Z,8.50
2018-12-21T11:31:08.891Z,8.50
2018-12-21T11:33:13.005Z,8.50
2018-12-21T11:35:16.751Z,8.50
2018-12-21T11:37:22.777Z,8.50
2018-12-21T11:39:33.087Z,8.50
2018-12-21T11:41:37.280Z,8.60
2018-12-21T11:43:46.082Z,8.60
2018-12-21T11:45:50.034Z,8.60
2018-12-21T11:47:58.731Z,8.60
2018-12-21T11:50:02.835Z,8.60
2018-12-21T11:52:08.556Z,8.70
2018-12-21T11:54:14.465Z,8.70
2018-12-21T11:56:18.457Z,8.70
2018-12-21T11:58:22.179Z,8.70
2018-12-21T12:00:25.844Z,8.70
2018-12-21T12:02:31.637Z,8.70
2018-12-21T12:04:35.756Z,8.70
2018-12-21T12:06:39.629Z,8.80
2018-12-21T12:08:43.604Z,8.80
2018-12-21T12:10:47.376Z,8.80
2018-12-21T12:12:56.124Z,8.80
2018-12-21T12:15:00.153Z,8.80
2018-12-21T12:17:04.153Z,8.80
2018-12-21T12:19:09.930Z,8.80
2018-12-21T12:21:18.632Z,8.80
2018-12-21T12:23:27.525Z,8.80
2018-12-21T12:25:36.264Z,8.80
2018-12-21T12:27:45.104Z,8.90
2018-12-21T12:29:49.060Z,8.90
2018-12-21T12:31:54.944Z,8.90
2018-12-21T12:34:03.533Z,8.90
2018-12-21T12:36:13.600Z,8.90
2018-12-21T12:38:19.596Z,8.90
2018-12-21T12:40:23.373Z,8.90
2018-12-21T12:42:27.139Z,9.00
2018-12-21T12:44:31.059Z,9.00
2018-12-21T12:46:34.708Z,9.00
2018-12-21T12:48:43.386Z,9.00
2018-12-21T12:50:52.038Z,9.00
2018-12-21T12:53:00.921Z,9.00
2018-12-21T12:55:05.531Z,9.00
2018-12-21T12:57:09.592Z,9.00
2018-12-21T12:59:18.232Z,9.00
2018-12-21T13:01:22.213Z,9.00
2018-12-21T13:03:30.800Z,9.10
2018-12-21T13:05:34.878Z,9.10
2018-12-21T13:07:38.828Z,9.10
2018-12-21T13:09:42.933Z,9.10
2018-12-21T13:11:48.888Z,9.10
2018-12-21T13:13:53.229Z,9.10
2018-12-21T13:15:56.636Z,9.10
2018-12-21T13:18:00.395Z,9.10
2018-12-21T13:20:07.541Z,9.10
2018-12-21T13:22:16.017Z,9.20
2018-12-21T13:24:20.030Z,9.20
2018-12-21T13:26:25.787Z,9.20
2018-12-21T13:28:29.581Z,9.20
2018-12-21T13:30:38.123Z,9.30
2018-12-21T13:32:41.984Z,9.20
2018-12-21T13:34:50.731Z,9.30
2018-12-21T13:36:56.873Z,9.30
2018-12-21T13:39:02.765Z,9.50
2018-12-21T13:41:11.985Z,9.50
2018-12-21T13:43:15.906Z,9.40
2018-12-21T13:45:24.482Z,9.50
2018-12-21T13:47:28.666Z,9.60
2018-12-21T13:49:37.514Z,9.70
2018-12-21T13:51:43.607Z,9.60
2018-12-21T13:53:52.623Z,9.70
2018-12-21T13:56:01.253Z,9.50
2018-12-21T13:58:10.092Z,9.70
2018-12-21T14:00:18.930Z,9.90
2018-12-21T14:02:23.191Z,9.90
2018-12-21T14:04:33.786Z,10.20
2018-12-21T14:06:42.588Z,10.10
2018-12-21T14:08:51.332Z,10.50
2018-12-21T14:10:55.295Z,10.50
2018-12-21T14:13:04.042Z,10.70
2018-12-21T14:15:08.163Z,10.70
2018-12-21T14:17:14.183Z,10.60
2018-12-21T14:19:18.151Z,10.70
2018-12-21T14:21:27.028Z,10.90
2018-12-21T14:23:35.805Z,10.70
2018-12-21T14:25:44.544Z,10.70
2018-12-21T14:27:50.688Z,10.70
2018-12-21T14:29:59.275Z,11.00
2018-12-21T14:32:06.342Z,11.00
2018-12-21T14:34:10.357Z,10.90
2018-12-21T14:36:20.874Z,11.10
2018-12-21T14:38:25.257Z,11.00
2018-12-21T14:40:33.861Z,11.10
2018-12-21T14:42:42.821Z,11.20
2018-12-21T14:44:52.508Z,11.10
2018-12-21T14:47:01.477Z,11.00
2018-12-21T14:49:10.324Z,11.00
2018-12-21T14:51:19.898Z,10.90
2018-12-21T14:53:24.185Z,10.90
2018-12-21T14:55:28.361Z,10.90
2018-12-21T14:57:37.992Z,10.80
2018-12-21T14:59:46.952Z,11.00
2018-12-21T15:01:50.912Z,10.90
2018-12-21T15:03:54.771Z,11.00
2018-12-21T15:05:58.460Z,10.90
2018-12-21T15:08:02.337Z,10.80
2018-12-21T15:10:10.956Z,11.00
2018-12-21T15:12:19.535Z,10.90
2018-12-21T15:14:28.495Z,11.00
2018-12-21T15:16:32.460Z,11.00
2018-12-21T15:18:41.392Z,11.10
2018-12-21T15:20:50.307Z,11.00
2018-12-21T15:22:54.452Z,11.10
2018-12-21T15:25:03.269Z,11.20
2018-12-21T15:27:07.172Z,11.10
2018-12-21T15:29:15.834Z,11.10
2018-12-21T15:31:19.702Z,11.00
2018-12-21T15:33:23.684Z,11.00
2018-12-21T15:35:32.233Z,11.00
2018-12-21T15:37:38.240Z,11.00
2018-12-21T15:39:42.021Z,10.90
2018-12-21T15:41:45.884Z,10.90
2018-12-21T15:43:49.780Z,10.90
2018-12-21T15:45:58.397Z,10.80
2018-12-21T15:48:08.444Z,10.80
2018-12-21T15:50:12.312Z,10.70
2018-12-21T15:52:20.924Z,10.80
2018-12-21T15:54:25.065Z,10.70
2018-12-21T15:56:28.949Z,10.70
2018-12-21T15:58:37.680Z,10.70
2018-12-21T16:00:46.516Z,10.70
2018-12-21T16:02:50.695Z,10.60
2018-12-21T16:04:59.170Z,10.60
2018-12-21T16:07:05.218Z,10.60
2018-12-21T16:09:09.124Z,10.60
2018-12-21T16:11:12.888Z,10.50
2018-12-21T16:13:16.692Z,10.50
2018-12-21T16:15:20.483Z,10.50
2018-12-21T16:17:24.352Z,10.50
2018-12-21T16:19:28.226Z,10.50
2018-12-21T16:21:32.266Z,10.50
2018-12-21T16:23:41.004Z,10.50
2018-12-21T16:25:49.926Z,10.50
2018-12-21T16:27:58.936Z,10.40
2018-12-21T16:30:03.236Z,10.40
2018-12-21T16:32:11.564Z,10.40
2018-12-21T16:34:20.512Z,10.40
2018-12-21T16:36:29.351Z,10.40
2018-12-21T16:38:33.543Z,10.40
2018-12-21T16:40:43.167Z,10.30
2018-12-21T16:42:52.204Z,10.30
2018-12-21T16:45:00.993Z,10.30
2018-12-21T16:47:06.972Z,10.30
2018-12-21T16:49:15.850Z,10.20
2018-12-21T16:51:19.918Z,10.30
2018-12-21T16:53:23.782Z,10.20
2018-12-21T16:55:32.613Z,10.20
2018-12-21T16:57:41.230Z,10.20
2018-12-21T16:59:49.980Z,10.20
2018-12-21T17:01:54.269Z,10.10
2018-12-21T17:04:03.087Z,10.10
2018-12-21T17:06:07.162Z,10.10
2018-12-21T17:08:15.801Z,10.10
2018-12-21T17:10:24.680Z,10.10
2018-12-21T17:12:33.428Z,10.00
2018-12-21T17:14:42.281Z,10.10
2018-12-21T17:16:51.082Z,10.00
2018-12-21T17:18:59.854Z,10.00
2018-12-21T17:21:03.722Z,10.00
2018-12-21T17:23:07.586Z,10.00
2018-12-21T17:25:16.081Z,10.00
2018-12-21T17:27:22.521Z,10.00
2018-12-21T17:29:28.745Z,9.90
2018-12-21T17:31:32.524Z,10.00
2018-12-21T17:33:41.294Z,9.90
2018-12-21T17:35:45.469Z,9.90
2018-12-21T17:37:54.335Z,9.80
2018-12-21T17:39:58.567Z,9.90
2018-12-21T17:42:04.344Z,9.80
2018-12-21T17:44:10.188Z,9.70
2018-12-21T17:46:19.210Z,9.70
2018-12-21T17:48:28.004Z,9.70
2018-12-21T17:50:36.892Z,9.70
2018-12-21T17:52:40.956Z,9.60
2018-12-21T17:54:49.638Z,9.60
2018-12-21T17:56:53.709Z,9.60
2018-12-21T17:58:57.588Z,9.60
2018-12-21T18:01:06.308Z,9.60
2018-12-21T18:03:17.370Z,9.60
2018-12-21T18:05:27.053Z,9.60
2018-12-21T18:07:31.020Z,9.60
2018-12-21T18:09:39.648Z,9.60
2018-12-21T18:11:57.025Z,9.60
2018-12-21T18:13:58.824Z,9.60
2018-12-21T18:16:07.601Z,9.60
2018-12-21T18:18:25.020Z,9.50
2018-12-21T18:20:22.431Z,9.60
2018-12-21T18:22:26.091Z,9.60
2018-12-21T18:24:34.752Z,9.60
2018-12-21T18:26:43.584Z,9.60
2018-12-21T18:28:52.454Z,9.60
2018-12-21T18:31:03.481Z,9.60
2018-12-21T18:33:13.715Z,9.60
2018-12-21T18:35:22.755Z,9.60
2018-12-21T18:37:26.545Z,9.60
2018-12-21T18:39:30.441Z,9.50
2018-12-21T18:41:34.237Z,9.60
2018-12-21T18:43:42.827Z,9.60
2018-12-21T18:45:51.534Z,9.50
2018-12-21T18:47:55.671Z,9.50
2018-12-21T18:50:05.569Z,9.50
2018-12-21T18:52:08.914Z,9.50
2018-12-21T18:54:14.872Z,9.50
2018-12-21T18:56:23.607Z,9.50
2018-12-21T18:58:27.651Z,9.50
2018-12-21T19:00:36.196Z,9.40
2018-12-21T19:02:40.294Z,9.40
2018-12-21T19:04:44.537Z,9.40
2018-12-21T19:06:48.296Z,9.30
2018-12-21T19:08:52.260Z,9.30
2018-12-21T19:11:01.141Z,9.30
2018-12-21T19:13:05.208Z,9.30
2018-12-21T19:15:09.243Z,9.30
2018-12-21T19:17:13.024Z,9.30
2018-12-21T19:19:21.705Z,9.20
2018-12-21T19:21:26.703Z,9.20
2018-12-21T19:23:30.827Z,9.20
2018-12-21T19:25:34.641Z,9.20
2018-12-21T19:27:40.636Z,9.20
2018-12-21T19:29:49.447Z,9.20
2018-12-21T19:31:58.379Z,9.20
2018-12-21T19:34:07.313Z,9.20
2018-12-21T19:36:11.371Z,9.20
2018-12-21T19:38:15.387Z,9.20
2018-12-21T19:40:24.020Z,9.20
2018-12-21T19:42:32.729Z,9.20
2018-12-21T19:44:41.576Z,9.20
2018-12-21T19:46:47.715Z,9.10
2018-12-21T19:48:56.425Z,9.10
2018-12-21T19:51:05.181Z,9.10
2018-12-21T19:53:09.739Z,9.10
2018-12-21T19:55:20.704Z,9.10
2018-12-21T19:57:24.959Z,9.10
2018-12-21T19:59:30.934Z,9.00
2018-12-21T20:01:34.741Z,9.10
2018-12-21T20:03:38.604Z,9.10
2018-12-21T20:05:47.292Z,9.10
2018-12-21T20:07:51.544Z,9.10
2018-12-21T20:10:00.315Z,9.00
2018-12-21T20:12:04.449Z,9.00
2018-12-21T20:14:12.867Z,9.00
2018-12-21T20:16:21.577Z,8.90
2018-12-21T20:18:30.286Z,8.90
2018-12-21T20:20:36.336Z,9.00
2018-12-21T20:22:40.339Z,8.90
2018-12-21T20:24:48.858Z,9.00
2018-12-21T20:26:52.959Z,8.90
2018-12-21T20:28:56.629Z,8.90
2018-12-21T20:31:00.556Z,8.90
2018-12-21T20:33:04.478Z,8.90
2018-12-21T20:35:13.080Z,8.80
2018-12-21T20:37:19.157Z,8.90
2018-12-21T20:39:27.988Z,8.90
2018-12-21T20:41:36.605Z,8.80
2018-12-21T20:43:45.308Z,8.80
2018-12-21T20:45:54.164Z,8.90
2018-12-21T20:47:58.114Z,8.80
2018-12-21T20:50:09.791Z,8.80
2018-12-21T20:52:13.657Z,8.70
2018-12-21T20:54:17.505Z,8.70
2018-12-21T20:56:21.291Z,8.70
2018-12-21T20:58:27.329Z,8.70
2018-12-21T21:00:36.861Z,8.60
2018-12-21T21:02:45.624Z,8.50
2018-12-21T21:04:54.260Z,8.50
2018-12-21T21:07:00.358Z,8.50
2018-12-21T21:09:09.124Z,8.40
2018-12-21T21:11:13.041Z,8.40
2018-12-21T21:13:19.428Z,8.40
2018-12-21T21:15:29.453Z,8.30
2018-12-21T21:17:38.317Z,8.30
2018-12-21T21:21:46.037Z,8.30
2018-12-21T21:27:58.255Z,8.20
2018-12-21T21:30:02.581Z,8.20
2018-12-21T21:32:08.468Z,8.20
2018-12-21T21:34:12.172Z,8.20
2018-12-21T21:36:15.963Z,8.20
2018-12-21T21:38:20.076Z,8.10
2018-12-21T21:40:23.900Z,8.20
2018-12-21T21:42:32.520Z,8.20
2018-12-21T21:44:36.374Z,8.20
2018-12-21T21:46:45.972Z,8.10
2018-12-21T21:48:54.797Z,8.20
2018-12-21T21:50:59.037Z,8.20
2018-12-21T21:53:07.917Z,8.10
2018-12-21T21:55:16.648Z,8.20
2018-12-21T21:57:20.841Z,8.00
2018-12-21T21:59:29.814Z,8.10
2018-12-21T22:01:34.061Z,8.10
2018-12-21T22:03:37.685Z,8.10
2018-12-21T22:05:46.318Z,8.00
2018-12-21T22:07:50.215Z,8.00
2018-12-21T22:09:54.425Z,7.90
2018-12-21T22:12:00.298Z,7.90
2018-12-21T22:14:04.215Z,7.80
2018-12-21T22:16:12.844Z,7.80
2018-12-21T22:18:17.125Z,7.90
2018-12-21T22:20:25.972Z,7.90
2018-12-21T22:22:29.953Z,7.80
2018-12-21T22:24:38.560Z,7.70
2018-12-21T22:26:44.700Z,7.70
2018-12-21T22:28:48.813Z,7.70
2018-12-21T22:30:53.359Z,7.60
2018-12-21T22:33:02.412Z,7.70
2018-12-21T22:35:06.559Z,7.70
2018-12-21T22:37:16.055Z,7.70
2018-12-21T22:39:20.234Z,7.60
2018-12-21T22:41:28.668Z,7.60
2018-12-21T22:43:37.631Z,7.70
2018-12-21T22:45:41.540Z,7.70
2018-12-21T22:47:45.425Z,7.80
2018-12-21T22:49:53.985Z,7.70
2018-12-21T22:52:02.762Z,7.70
2018-12-21T22:54:06.675Z,7.60
2018-12-21T22:56:10.468Z,7.60
2018-12-21T22:58:19.186Z,7.50
2018-12-21T23:00:30.015Z,7.60
2018-12-21T23:02:38.712Z,7.50
2018-12-21T23:04:47.629Z,7.50
2018-12-21T23:06:56.380Z,7.50
2018-12-21T23:09:05.405Z,7.50
2018-12-21T23:11:09.232Z,7.50
2018-12-21T23:13:12.898Z,7.50
2018-12-21T23:15:21.598Z,7.50
2018-12-21T23:17:30.536Z,7.50
2018-12-21T23:19:34.472Z,7.30
2018-12-21T23:21:38.340Z,7.30
2018-12-21T23:23:42.137Z,7.30
2018-12-21T23:25:45.711Z,7.20
2018-12-21T23:27:54.452Z,7.20
2018-12-21T23:30:00.537Z,7.10
2018-12-21T23:32:06.341Z,7.10
2018-12-21T23:34:15.175Z,7.10
2018-12-21T23:36:21.256Z,7.10
2018-12-21T23:38:25.131Z,7.10
2018-12-21T23:40:33.789Z,7.10
2018-12-21T23:42:37.776Z,7.20
2018-12-21T23:44:46.516Z,7.20
2018-12-21T23:46:52.739Z,7.20
2018-12-21T23:49:01.523Z,7.20
2018-12-21T23:51:10.197Z,7.10
2018-12-21T23:53:18.896Z,7.00
2018-12-21T23:55:23.000Z,7.00
2018-12-21T23:57:26.952Z,7.00
2018-12-21T23:59:30.840Z,7.00
